sensor_id;sensor_type;location;lat;lon;timestamp;pressure;altitude;pressure_sealevel;temperature;humidity
19553;BME280;9420;50.876;7.012;2023-01-15T00:01:30;99624.63;;;13.82;100.00
19553;BME280;9420;50.876;7.012;2023-01-15T00:04:02;99635.75;;;14.01;100.00
19553;BME280;9420;50.876;7.012;2023-01-15T00:06:33;99628.31;;;14.08;100.00
19553;BME280;9420;50.876;7.012;2023-01-15T00:09:00;99633.97;;;14.16;100.00
19553;BME280;9420;50.876;7.012;2023-01-15T00:11:28;99643.69;;;13.87;100.00
19553;BME280;9420;50.876;7.012;2023-01-15T00:13:56;99664.72;;;13.45;100.00
19553;BME280;9420;50.876;7.012;2023-01-15T00:16:24;99658.69;;;13.43;100.00
19553;BME280;9420;50.876;7.012;2023-01-15T00:18:54;99652.53;;;13.72;100.00
19553;BME280;9420;50.876;7.012;2023-01-15T00:21:24;99673.28;;;13.34;100.00
19553;BME280;9420;50.876;7.012;2023-01-15T00:23:52;99657.25;;;13.97;100.00
19553;BME280;9420;50.876;7.012;2023-01-15T00:26:38;99658.50;;;14.19;100.00
19553;BME280;9420;50.876;7.012;2023-01-15T00:29:24;99663.53;;;13.80;100.00
19553;BME280;9420;50.876;7.012;2023-01-15T00:31:55;99674.78;;;14.70;100.00
19553;BME280;9420;50.876;7.012;2023-01-15T00:34:23;99684.84;;;13.63;100.00
19553;BME280;9420;50.876;7.012;2023-01-15T00:36:52;99688.00;;;13.84;100.00
19553;BME280;9420;50.876;7.012;2023-01-15T00:39:20;99694.25;;;13.53;100.00
19553;BME280;9420;50.876;7.012;2023-01-15T00:41:49;99700.63;;;13.49;100.00
19553;BME280;9420;50.876;7.012;2023-01-15T00:44:17;99690.47;;;13.57;100.00
19553;BME280;9420;50.876;7.012;2023-01-15T00:46:44;99701.88;;;13.28;100.00
19553;BME280;9420;50.876;7.012;2023-01-15T00:49:12;99689.47;;;12.97;100.00
19553;BME280;9420;50.876;7.012;2023-01-15T00:51:39;99689.75;;;13.24;100.00
19553;BME280;9420;50.876;7.012;2023-01-15T00:54:08;99686.88;;;13.58;100.00
19553;BME280;9420;50.876;7.012;2023-01-15T00:56:35;99694.72;;;13.60;100.00
19553;BME280;9420;50.876;7.012;2023-01-15T00:59:03;99690.25;;;13.30;100.00
19553;BME280;9420;50.876;7.012;2023-01-15T01:01:33;99692.81;;;13.77;100.00
19553;BME280;9420;50.876;7.012;2023-01-15T01:04:00;99684.53;;;13.97;100.00
19553;BME280;9420;50.876;7.012;2023-01-15T01:06:28;99684.47;;;14.13;100.00
19553;BME280;9420;50.876;7.012;2023-01-15T01:08:56;99680.16;;;13.82;100.00
19553;BME280;9420;50.876;7.012;2023-01-15T01:11:25;99681.47;;;13.75;100.00
19553;BME280;9420;50.876;7.012;2023-01-15T01:13:54;99664.75;;;13.89;100.00
19553;BME280;9420;50.876;7.012;2023-01-15T01:16:28;99667.16;;;13.34;100.00
19553;BME280;9420;50.876;7.012;2023-01-15T01:18:58;99672.78;;;13.87;100.00
19553;BME280;9420;50.876;7.012;2023-01-15T01:21:27;99675.69;;;14.12;100.00
19553;BME280;9420;50.876;7.012;2023-01-15T01:23:54;99669.63;;;14.24;100.00
19553;BME280;9420;50.876;7.012;2023-01-15T01:26:24;99669.59;;;13.82;100.00
19553;BME280;9420;50.876;7.012;2023-01-15T01:28:53;99669.47;;;13.70;100.00
19553;BME280;9420;50.876;7.012;2023-01-15T01:31:21;99678.53;;;13.50;100.00
19553;BME280;9420;50.876;7.012;2023-01-15T01:33:49;99686.59;;;13.33;100.00
19553;BME280;9420;50.876;7.012;2023-01-15T01:36:17;99682.50;;;13.12;100.00
19553;BME280;9420;50.876;7.012;2023-01-15T01:38:46;99681.44;;;13.45;100.00
19553;BME280;9420;50.876;7.012;2023-01-15T01:41:15;99680.31;;;13.65;100.00
19553;BME280;9420;50.876;7.012;2023-01-15T01:43:58;99681.78;;;13.55;100.00
19553;BME280;9420;50.876;7.012;2023-01-15T01:46:27;99676.03;;;13.92;100.00
19553;BME280;9420;50.876;7.012;2023-01-15T01:48:59;99680.59;;;14.04;100.00
19553;BME280;9420;50.876;7.012;2023-01-15T01:51:34;99680.75;;;14.01;100.00
19553;BME280;9420;50.876;7.012;2023-01-15T01:54:07;99678.59;;;13.64;99.90
19553;BME280;9420;50.876;7.012;2023-01-15T01:56:36;99662.59;;;13.81;98.29
19553;BME280;9420;50.876;7.012;2023-01-15T01:59:06;99647.84;;;13.77;98.27
19553;BME280;9420;50.876;7.012;2023-01-15T02:01:34;99635.59;;;14.61;96.78
19553;BME280;9420;50.876;7.012;2023-01-15T02:04:04;99643.63;;;14.03;97.26
19553;BME280;9420;50.876;7.012;2023-01-15T02:06:32;99639.38;;;14.14;89.78
19553;BME280;9420;50.876;7.012;2023-01-15T02:09:00;99658.66;;;14.16;91.70
19553;BME280;9420;50.876;7.012;2023-01-15T02:11:29;99663.78;;;14.05;90.57
19553;BME280;9420;50.876;7.012;2023-01-15T02:14:05;99664.72;;;14.04;91.19
19553;BME280;9420;50.876;7.012;2023-01-15T02:16:40;99671.72;;;14.05;91.38
19553;BME280;9420;50.876;7.012;2023-01-15T02:19:24;99661.56;;;13.84;91.04
19553;BME280;9420;50.876;7.012;2023-01-15T02:22:06;99660.38;;;14.17;91.15
19553;BME280;9420;50.876;7.012;2023-01-15T02:24:49;99661.44;;;13.71;92.26
19553;BME280;9420;50.876;7.012;2023-01-15T02:27:23;99657.16;;;14.12;92.11
19553;BME280;9420;50.876;7.012;2023-01-15T02:30:00;99656.56;;;13.93;92.58
19553;BME280;9420;50.876;7.012;2023-01-15T02:32:35;99649.59;;;14.06;92.45
19553;BME280;9420;50.876;7.012;2023-01-15T02:35:12;99648.50;;;14.39;90.02
19553;BME280;9420;50.876;7.012;2023-01-15T02:37:47;99643.47;;;14.48;90.61
19553;BME280;9420;50.876;7.012;2023-01-15T02:40:20;99647.50;;;14.82;90.06
19553;BME280;9420;50.876;7.012;2023-01-15T02:42:52;99657.91;;;14.85;90.33
19553;BME280;9420;50.876;7.012;2023-01-15T02:45:24;99662.50;;;14.41;90.54
19553;BME280;9420;50.876;7.012;2023-01-15T02:47:56;99655.41;;;13.83;90.61
19553;BME280;9420;50.876;7.012;2023-01-15T02:50:31;99660.72;;;13.97;91.00
19553;BME280;9420;50.876;7.012;2023-01-15T02:53:06;99667.78;;;14.41;89.06
19553;BME280;9420;50.876;7.012;2023-01-15T02:55:41;99660.56;;;14.14;89.24
19553;BME280;9420;50.876;7.012;2023-01-15T02:58:15;99666.75;;;13.99;91.10
19553;BME280;9420;50.876;7.012;2023-01-15T03:00:47;99669.75;;;13.79;91.54
19553;BME280;9420;50.876;7.012;2023-01-15T03:03:21;99659.16;;;13.65;91.45
19553;BME280;9420;50.876;7.012;2023-01-15T03:05:58;99648.81;;;13.90;91.31
19553;BME280;9420;50.876;7.012;2023-01-15T03:08:26;99655.88;;;14.33;91.10
19553;BME280;9420;50.876;7.012;2023-01-15T03:11:02;99638.16;;;14.20;91.46
19553;BME280;9420;50.876;7.012;2023-01-15T03:13:44;99646.13;;;14.34;90.07
19553;BME280;9420;50.876;7.012;2023-01-15T03:16:20;99645.28;;;14.62;90.61
19553;BME280;9420;50.876;7.012;2023-01-15T03:19:06;99645.78;;;13.96;92.62
19553;BME280;9420;50.876;7.012;2023-01-15T03:21:48;99648.06;;;14.16;91.51
19553;BME280;9420;50.876;7.012;2023-01-15T03:24:24;99637.47;;;14.16;92.34
19553;BME280;9420;50.876;7.012;2023-01-15T03:26:53;99650.22;;;13.96;92.73
19553;BME280;9420;50.876;7.012;2023-01-15T03:29:24;99655.25;;;14.14;92.03
19553;BME280;9420;50.876;7.012;2023-01-15T03:31:53;99666.31;;;14.07;92.11
19553;BME280;9420;50.876;7.012;2023-01-15T03:34:21;99668.09;;;14.06;93.36
19553;BME280;9420;50.876;7.012;2023-01-15T03:36:48;99664.56;;;13.48;93.19
19553;BME280;9420;50.876;7.012;2023-01-15T03:39:15;99645.06;;;13.65;92.60
19553;BME280;9420;50.876;7.012;2023-01-15T03:41:51;99626.63;;;14.07;90.89
19553;BME280;9420;50.876;7.012;2023-01-15T03:44:35;99611.56;;;13.79;88.52
19553;BME280;9420;50.876;7.012;2023-01-15T03:47:24;99618.22;;;14.28;87.57
19553;BME280;9420;50.876;7.012;2023-01-15T03:50:03;99607.44;;;14.46;88.07
19553;BME280;9420;50.876;7.012;2023-01-15T03:52:42;99614.03;;;14.24;87.77
19553;BME280;9420;50.876;7.012;2023-01-15T03:55:14;99606.13;;;14.53;83.22
19553;BME280;9420;50.876;7.012;2023-01-15T03:57:47;99615.56;;;14.57;82.93
19553;BME280;9420;50.876;7.012;2023-01-15T04:00:23;99609.66;;;13.81;83.47
19553;BME280;9420;50.876;7.012;2023-01-15T04:02:54;99596.84;;;14.17;84.43
19553;BME280;9420;50.876;7.012;2023-01-15T04:05:24;99592.09;;;14.08;84.29
19553;BME280;9420;50.876;7.012;2023-01-15T04:07:54;99617.38;;;13.70;85.62
19553;BME280;9420;50.876;7.012;2023-01-15T04:10:23;99612.69;;;13.89;84.48
19553;BME280;9420;50.876;7.012;2023-01-15T04:12:50;99623.69;;;14.68;81.64
19553;BME280;9420;50.876;7.012;2023-01-15T04:15:18;99619.13;;;13.99;81.41
19553;BME280;9420;50.876;7.012;2023-01-15T04:17:45;99602.63;;;14.24;83.06
19553;BME280;9420;50.876;7.012;2023-01-15T04:20:13;99600.38;;;14.32;82.77
19553;BME280;9420;50.876;7.012;2023-01-15T04:22:40;99605.91;;;14.70;79.61
19553;BME280;9420;50.876;7.012;2023-01-15T04:25:08;99608.19;;;14.62;81.20
19553;BME280;9420;50.876;7.012;2023-01-15T04:27:35;99597.44;;;14.37;83.28
19553;BME280;9420;50.876;7.012;2023-01-15T04:30:03;99595.59;;;14.23;83.10
19553;BME280;9420;50.876;7.012;2023-01-15T04:32:32;99598.66;;;14.45;84.65
19553;BME280;9420;50.876;7.012;2023-01-15T04:34:59;99607.25;;;13.92;87.55
19553;BME280;9420;50.876;7.012;2023-01-15T04:37:26;99595.13;;;13.88;88.41
19553;BME280;9420;50.876;7.012;2023-01-15T04:39:53;99614.91;;;13.53;89.75
19553;BME280;9420;50.876;7.012;2023-01-15T04:42:20;99641.41;;;13.81;89.94
19553;BME280;9420;50.876;7.012;2023-01-15T04:45:06;99625.16;;;13.87;91.93
19553;BME280;9420;50.876;7.012;2023-01-15T04:47:35;99631.56;;;13.69;91.42
19553;BME280;9420;50.876;7.012;2023-01-15T04:50:02;99630.94;;;13.94;91.28
19553;BME280;9420;50.876;7.012;2023-01-15T04:52:30;99618.31;;;13.55;92.46
19553;BME280;9420;50.876;7.012;2023-01-15T04:54:57;99626.81;;;13.60;92.39
19553;BME280;9420;50.876;7.012;2023-01-15T04:57:24;99632.41;;;14.13;90.67
19553;BME280;9420;50.876;7.012;2023-01-15T04:59:51;99632.47;;;13.98;90.84
19553;BME280;9420;50.876;7.012;2023-01-15T05:02:18;99639.19;;;14.17;90.09
19553;BME280;9420;50.876;7.012;2023-01-15T05:04:47;99623.53;;;14.43;88.55
19553;BME280;9420;50.876;7.012;2023-01-15T05:07:15;99644.63;;;13.42;91.98
19553;BME280;9420;50.876;7.012;2023-01-15T05:09:42;99628.56;;;13.45;91.11
19553;BME280;9420;50.876;7.012;2023-01-15T05:12:09;99623.31;;;14.17;88.90
19553;BME280;9420;50.876;7.012;2023-01-15T05:14:36;99641.53;;;13.50;88.41
19553;BME280;9420;50.876;7.012;2023-01-15T05:17:03;99633.31;;;13.98;87.78
19553;BME280;9420;50.876;7.012;2023-01-15T05:19:30;99633.22;;;13.26;86.21
19553;BME280;9420;50.876;7.012;2023-01-15T05:21:58;99628.81;;;13.71;85.42
19553;BME280;9420;50.876;7.012;2023-01-15T05:24:25;99624.84;;;13.64;83.50
19553;BME280;9420;50.876;7.012;2023-01-15T05:26:52;99631.81;;;13.50;84.53
19553;BME280;9420;50.876;7.012;2023-01-15T05:29:19;99632.63;;;13.51;82.31
19553;BME280;9420;50.876;7.012;2023-01-15T05:31:46;99637.94;;;13.51;82.39
19553;BME280;9420;50.876;7.012;2023-01-15T05:34:14;99619.88;;;13.73;81.57
19553;BME280;9420;50.876;7.012;2023-01-15T05:36:41;99627.97;;;13.70;79.32
19553;BME280;9420;50.876;7.012;2023-01-15T05:39:10;99639.00;;;13.33;78.89
19553;BME280;9420;50.876;7.012;2023-01-15T05:41:37;99632.75;;;13.64;78.68
19553;BME280;9420;50.876;7.012;2023-01-15T05:44:20;99634.53;;;13.49;79.16
19553;BME280;9420;50.876;7.012;2023-01-15T05:46:50;99638.84;;;13.20;80.07
19553;BME280;9420;50.876;7.012;2023-01-15T05:49:20;99628.63;;;13.30;80.10
19553;BME280;9420;50.876;7.012;2023-01-15T05:51:48;99638.16;;;13.32;80.20
19553;BME280;9420;50.876;7.012;2023-01-15T05:54:20;99648.41;;;13.23;81.86
19553;BME280;9420;50.876;7.012;2023-01-15T05:56:47;99640.06;;;13.15;82.19
19553;BME280;9420;50.876;7.012;2023-01-15T05:59:16;99642.59;;;13.32;82.31
19553;BME280;9420;50.876;7.012;2023-01-15T06:01:44;99655.25;;;13.57;82.66
19553;BME280;9420;50.876;7.012;2023-01-15T06:04:12;99655.13;;;13.28;84.43
19553;BME280;9420;50.876;7.012;2023-01-15T06:06:41;99656.44;;;13.06;85.25
19553;BME280;9420;50.876;7.012;2023-01-15T06:09:09;99661.22;;;13.15;86.82
19553;BME280;9420;50.876;7.012;2023-01-15T06:11:37;99649.53;;;13.19;87.24
19553;BME280;9420;50.876;7.012;2023-01-15T06:14:05;99652.63;;;13.41;87.54
19553;BME280;9420;50.876;7.012;2023-01-15T06:16:33;99646.22;;;13.45;88.82
19553;BME280;9420;50.876;7.012;2023-01-15T06:19:00;99649.59;;;12.70;93.68
19553;BME280;9420;50.876;7.012;2023-01-15T06:21:29;99654.22;;;13.14;95.32
19553;BME280;9420;50.876;7.012;2023-01-15T06:23:57;99647.22;;;12.82;97.38
19553;BME280;9420;50.876;7.012;2023-01-15T06:26:24;99656.44;;;13.21;96.86
19553;BME280;9420;50.876;7.012;2023-01-15T06:28:53;99674.28;;;12.69;98.65
19553;BME280;9420;50.876;7.012;2023-01-15T06:31:22;99657.91;;;13.41;97.07
19553;BME280;9420;50.876;7.012;2023-01-15T06:33:51;99675.09;;;13.03;96.88
19553;BME280;9420;50.876;7.012;2023-01-15T06:36:21;99665.19;;;13.22;96.61
19553;BME280;9420;50.876;7.012;2023-01-15T06:38:49;99662.91;;;13.16;94.10
19553;BME280;9420;50.876;7.012;2023-01-15T06:41:19;99674.47;;;13.29;95.73
19553;BME280;9420;50.876;7.012;2023-01-15T06:44:05;99673.78;;;13.41;94.99
19553;BME280;9420;50.876;7.012;2023-01-15T06:46:50;99675.66;;;12.76;97.05
19553;BME280;9420;50.876;7.012;2023-01-15T06:49:36;99689.91;;;12.90;97.93
19553;BME280;9420;50.876;7.012;2023-01-15T06:52:05;99691.94;;;12.69;98.26
19553;BME280;9420;50.876;7.012;2023-01-15T06:54:33;99694.75;;;12.97;98.00
19553;BME280;9420;50.876;7.012;2023-01-15T06:57:00;99690.00;;;12.88;99.10
19553;BME280;9420;50.876;7.012;2023-01-15T06:59:28;99692.66;;;12.55;99.09
19553;BME280;9420;50.876;7.012;2023-01-15T07:01:55;99688.06;;;12.59;100.00
19553;BME280;9420;50.876;7.012;2023-01-15T07:04:22;99692.53;;;12.58;100.00
19553;BME280;9420;50.876;7.012;2023-01-15T07:06:49;99707.22;;;12.14;100.00
19553;BME280;9420;50.876;7.012;2023-01-15T07:09:16;99706.25;;;12.15;100.00
19553;BME280;9420;50.876;7.012;2023-01-15T07:11:44;99712.47;;;12.14;100.00
19553;BME280;9420;50.876;7.012;2023-01-15T07:14:19;99711.41;;;12.01;100.00
19553;BME280;9420;50.876;7.012;2023-01-15T07:16:49;99715.13;;;12.14;100.00
19553;BME280;9420;50.876;7.012;2023-01-15T07:19:17;99700.81;;;12.35;100.00
19553;BME280;9420;50.876;7.012;2023-01-15T07:21:44;99721.50;;;12.10;100.00
19553;BME280;9420;50.876;7.012;2023-01-15T07:24:12;99713.25;;;12.49;100.00
19553;BME280;9420;50.876;7.012;2023-01-15T07:26:41;99721.31;;;12.13;100.00
19553;BME280;9420;50.876;7.012;2023-01-15T07:29:08;99718.34;;;12.36;100.00
19553;BME280;9420;50.876;7.012;2023-01-15T07:31:36;99732.31;;;12.38;100.00
19553;BME280;9420;50.876;7.012;2023-01-15T07:34:05;99734.19;;;12.36;100.00
19553;BME280;9420;50.876;7.012;2023-01-15T07:36:32;99731.19;;;12.59;100.00
19553;BME280;9420;50.876;7.012;2023-01-15T07:38:59;99728.53;;;12.59;100.00
19553;BME280;9420;50.876;7.012;2023-01-15T07:41:28;99744.41;;;12.42;100.00
19553;BME280;9420;50.876;7.012;2023-01-15T07:44:13;99729.84;;;12.68;100.00
19553;BME280;9420;50.876;7.012;2023-01-15T07:46:57;99738.72;;;12.83;100.00
19553;BME280;9420;50.876;7.012;2023-01-15T07:49:44;99750.28;;;12.64;100.00
19553;BME280;9420;50.876;7.012;2023-01-15T07:52:11;99740.25;;;12.87;100.00
19553;BME280;9420;50.876;7.012;2023-01-15T07:54:39;99752.81;;;12.50;99.76
19553;BME280;9420;50.876;7.012;2023-01-15T07:57:06;99738.09;;;13.26;98.02
19553;BME280;9420;50.876;7.012;2023-01-15T07:59:34;99760.38;;;12.89;98.74
19553;BME280;9420;50.876;7.012;2023-01-15T08:02:01;99769.06;;;12.75;98.33
19553;BME280;9420;50.876;7.012;2023-01-15T08:04:28;99768.00;;;12.78;99.31
19553;BME280;9420;50.876;7.012;2023-01-15T08:06:58;99777.22;;;12.87;97.16
19553;BME280;9420;50.876;7.012;2023-01-15T08:09:26;99783.63;;;13.62;95.13
19553;BME280;9420;50.876;7.012;2023-01-15T08:11:53;99802.78;;;12.86;97.78
19553;BME280;9420;50.876;7.012;2023-01-15T08:14:38;99824.78;;;12.37;100.00
19553;BME280;9420;50.876;7.012;2023-01-15T08:17:22;99847.66;;;12.19;100.00
19553;BME280;9420;50.876;7.012;2023-01-15T08:19:49;99842.25;;;14.15;100.00
19553;BME280;9420;50.876;7.012;2023-01-15T08:22:18;99864.06;;;10.77;100.00
19553;BME280;9420;50.876;7.012;2023-01-15T08:24:45;99843.47;;;11.61;100.00
19553;BME280;9420;50.876;7.012;2023-01-15T08:27:12;99850.19;;;11.31;100.00
19553;BME280;9420;50.876;7.012;2023-01-15T08:29:39;99857.63;;;11.41;100.00
19553;BME280;9420;50.876;7.012;2023-01-15T08:32:06;99859.50;;;11.00;100.00
19553;BME280;9420;50.876;7.012;2023-01-15T08:34:33;99838.22;;;11.42;100.00
19553;BME280;9420;50.876;7.012;2023-01-15T08:37:00;99836.34;;;11.81;100.00
19553;BME280;9420;50.876;7.012;2023-01-15T08:39:29;99850.69;;;11.39;100.00
19553;BME280;9420;50.876;7.012;2023-01-15T08:41:56;99853.03;;;11.82;100.00
19553;BME280;9420;50.876;7.012;2023-01-15T08:44:23;99836.38;;;11.26;100.00
19553;BME280;9420;50.876;7.012;2023-01-15T08:46:51;99849.34;;;11.11;100.00
19553;BME280;9420;50.876;7.012;2023-01-15T08:49:19;99844.09;;;11.67;100.00
19553;BME280;9420;50.876;7.012;2023-01-15T08:51:47;99840.22;;;12.10;100.00
19553;BME280;9420;50.876;7.012;2023-01-15T08:54:18;99837.88;;;12.04;100.00
19553;BME280;9420;50.876;7.012;2023-01-15T08:56:47;99836.47;;;11.97;100.00
19553;BME280;9420;50.876;7.012;2023-01-15T08:59:15;99836.34;;;11.81;100.00
19553;BME280;9420;50.876;7.012;2023-01-15T09:01:43;99827.78;;;11.95;100.00
19553;BME280;9420;50.876;7.012;2023-01-15T09:04:13;99831.25;;;11.78;100.00
19553;BME280;9420;50.876;7.012;2023-01-15T09:06:41;99828.09;;;11.89;100.00
19553;BME280;9420;50.876;7.012;2023-01-15T09:09:09;99840.59;;;11.67;100.00
19553;BME280;9420;50.876;7.012;2023-01-15T09:11:37;99832.44;;;12.07;100.00
19553;BME280;9420;50.876;7.012;2023-01-15T09:14:08;99830.16;;;12.35;100.00
19553;BME280;9420;50.876;7.012;2023-01-15T09:16:35;99833.69;;;12.34;100.00
19553;BME280;9420;50.876;7.012;2023-01-15T09:19:05;99828.28;;;12.54;100.00
19553;BME280;9420;50.876;7.012;2023-01-15T09:21:33;99824.03;;;12.67;100.00
19553;BME280;9420;50.876;7.012;2023-01-15T09:24:00;99823.44;;;12.62;100.00
19553;BME280;9420;50.876;7.012;2023-01-15T09:26:31;99812.94;;;13.11;100.00
19553;BME280;9420;50.876;7.012;2023-01-15T09:29:00;99814.94;;;12.90;100.00
19553;BME280;9420;50.876;7.012;2023-01-15T09:31:29;99815.34;;;13.15;100.00
19553;BME280;9420;50.876;7.012;2023-01-15T09:33:57;99829.50;;;12.30;100.00
19553;BME280;9420;50.876;7.012;2023-01-15T09:36:27;99815.41;;;12.31;100.00
19553;BME280;9420;50.876;7.012;2023-01-15T09:38:55;99820.47;;;12.68;100.00
19553;BME280;9420;50.876;7.012;2023-01-15T09:41:25;99814.69;;;12.28;100.00
19553;BME280;9420;50.876;7.012;2023-01-15T09:44:29;99811.78;;;12.66;100.00
19553;BME280;9420;50.876;7.012;2023-01-15T09:47:11;99810.38;;;12.59;100.00
19553;BME280;9420;50.876;7.012;2023-01-15T09:49:56;99818.44;;;12.73;100.00
19553;BME280;9420;50.876;7.012;2023-01-15T09:52:44;99815.16;;;12.86;100.00
19553;BME280;9420;50.876;7.012;2023-01-15T09:55:19;99819.34;;;12.90;100.00
19553;BME280;9420;50.876;7.012;2023-01-15T09:57:54;99820.25;;;13.06;100.00
19553;BME280;9420;50.876;7.012;2023-01-15T10:00:25;99848.69;;;12.51;99.59
19553;BME280;9420;50.876;7.012;2023-01-15T10:03:03;99832.28;;;12.44;97.94
19553;BME280;9420;50.876;7.012;2023-01-15T10:05:34;99823.69;;;12.58;99.01
19553;BME280;9420;50.876;7.012;2023-01-15T10:08:10;99821.72;;;12.44;99.06
19553;BME280;9420;50.876;7.012;2023-01-15T10:10:44;99820.81;;;12.45;97.20
19553;BME280;9420;50.876;7.012;2023-01-15T10:13:22;99816.09;;;12.85;97.13
19553;BME280;9420;50.876;7.012;2023-01-15T10:15:54;99827.84;;;13.12;95.71
19553;BME280;9420;50.876;7.012;2023-01-15T10:18:26;99835.19;;;12.90;95.68
19553;BME280;9420;50.876;7.012;2023-01-15T10:21:23;99841.41;;;13.06;95.34
19553;BME280;9420;50.876;7.012;2023-01-15T10:24:02;99835.34;;;12.87;92.50
19553;BME280;9420;50.876;7.012;2023-01-15T10:26:36;99850.97;;;13.24;92.52
19553;BME280;9420;50.876;7.012;2023-01-15T10:29:17;99833.47;;;13.06;90.97
19553;BME280;9420;50.876;7.012;2023-01-15T10:31:51;99841.78;;;13.31;92.33
19553;BME280;9420;50.876;7.012;2023-01-15T10:37:41;99847.22;;;12.95;87.74
19553;BME280;9420;50.876;7.012;2023-01-15T10:40:31;99856.66;;;12.84;87.65
19553;BME280;9420;50.876;7.012;2023-01-15T10:43:06;99843.94;;;13.40;86.98
19553;BME280;9420;50.876;7.012;2023-01-15T10:45:42;99844.03;;;13.54;86.68
19553;BME280;9420;50.876;7.012;2023-01-15T10:48:20;99843.19;;;13.38;85.38
19553;BME280;9420;50.876;7.012;2023-01-15T10:50:53;99845.22;;;13.64;83.69
19553;BME280;9420;50.876;7.012;2023-01-15T10:53:30;99852.72;;;13.56;83.80
19553;BME280;9420;50.876;7.012;2023-01-15T10:56:07;99853.16;;;13.64;82.47
19553;BME280;9420;50.876;7.012;2023-01-15T10:58:42;99849.66;;;13.48;82.34
19553;BME280;9420;50.876;7.012;2023-01-15T11:01:17;99862.81;;;13.65;80.43
19553;BME280;9420;50.876;7.012;2023-01-15T11:03:48;99834.53;;;13.81;79.34
19553;BME280;9420;50.876;7.012;2023-01-15T11:06:20;99866.66;;;14.20;77.93
19553;BME280;9420;50.876;7.012;2023-01-15T11:08:51;99883.13;;;13.80;78.00
19553;BME280;9420;50.876;7.012;2023-01-15T11:11:24;99852.63;;;13.57;78.08
19553;BME280;9420;50.876;7.012;2023-01-15T11:14:32;99863.97;;;14.06;77.07
19553;BME280;9420;50.876;7.012;2023-01-15T11:17:17;99853.72;;;14.00;76.43
19553;BME280;9420;50.876;7.012;2023-01-15T11:20:12;99864.69;;;13.63;76.23
19553;BME280;9420;50.876;7.012;2023-01-15T11:22:41;99852.44;;;13.29;76.18
19553;BME280;9420;50.876;7.012;2023-01-15T11:25:08;99870.47;;;13.54;75.91
19553;BME280;9420;50.876;7.012;2023-01-15T11:27:38;99866.03;;;13.70;74.45
19553;BME280;9420;50.876;7.012;2023-01-15T11:30:26;99852.84;;;14.15;73.68
19553;BME280;9420;50.876;7.012;2023-01-15T11:32:59;99856.56;;;14.27;73.40
19553;BME280;9420;50.876;7.012;2023-01-15T11:35:29;99858.50;;;13.78;74.97
19553;BME280;9420;50.876;7.012;2023-01-15T11:38:12;99855.63;;;13.67;74.25
19553;BME280;9420;50.876;7.012;2023-01-15T11:40:51;99855.16;;;14.21;74.07
19553;BME280;9420;50.876;7.012;2023-01-15T11:43:21;99889.56;;;14.21;71.07
19553;BME280;9420;50.876;7.012;2023-01-15T11:46:27;99850.53;;;14.55;71.23
19553;BME280;9420;50.876;7.012;2023-01-15T11:49:16;99850.59;;;13.63;74.02
19553;BME280;9420;50.876;7.012;2023-01-15T11:52:02;99856.31;;;13.71;72.29
19553;BME280;9420;50.876;7.012;2023-01-15T11:54:38;99858.34;;;13.50;73.01
19553;BME280;9420;50.876;7.012;2023-01-15T11:57:07;99857.31;;;13.68;73.48
19553;BME280;9420;50.876;7.012;2023-01-15T11:59:36;99842.25;;;14.15;72.77
19553;BME280;9420;50.876;7.012;2023-01-15T12:02:15;99852.97;;;14.44;71.97
19553;BME280;9420;50.876;7.012;2023-01-15T12:04:51;99853.34;;;13.61;74.63
19553;BME280;9420;50.876;7.012;2023-01-15T12:07:22;99837.19;;;13.81;73.50
19553;BME280;9420;50.876;7.012;2023-01-15T12:10:18;99827.97;;;14.33;71.98
19553;BME280;9420;50.876;7.012;2023-01-15T12:13:21;99830.72;;;13.40;73.92
19553;BME280;9420;50.876;7.012;2023-01-15T12:16:02;99807.91;;;14.29;71.39
19553;BME280;9420;50.876;7.012;2023-01-15T12:18:54;99797.81;;;14.36;69.46
19553;BME280;9420;50.876;7.012;2023-01-15T12:21:58;99807.09;;;14.13;71.90
19553;BME280;9420;50.876;7.012;2023-01-15T12:24:52;99808.06;;;14.26;70.90
19553;BME280;9420;50.876;7.012;2023-01-15T12:27:52;99794.25;;;14.21;69.22
19553;BME280;9420;50.876;7.012;2023-01-15T12:30:30;99806.09;;;15.44;66.52
19553;BME280;9420;50.876;7.012;2023-01-15T12:33:18;99772.94;;;16.30;62.54
19553;BME280;9420;50.876;7.012;2023-01-15T12:35:55;99796.28;;;15.73;61.73
19553;BME280;9420;50.876;7.012;2023-01-15T12:38:41;99806.16;;;14.44;66.16
19553;BME280;9420;50.876;7.012;2023-01-15T12:41:14;99823.28;;;14.23;66.65
19553;BME280;9420;50.876;7.012;2023-01-15T12:43:51;99823.34;;;14.95;66.46
19553;BME280;9420;50.876;7.012;2023-01-15T12:46:43;99811.16;;;14.35;70.31
19553;BME280;9420;50.876;7.012;2023-01-15T12:49:26;99812.78;;;13.76;70.42
19553;BME280;9420;50.876;7.012;2023-01-15T12:52:05;99798.81;;;14.77;67.19
19553;BME280;9420;50.876;7.012;2023-01-15T12:54:41;99783.31;;;16.72;60.15
19553;BME280;9420;50.876;7.012;2023-01-15T12:57:17;99779.72;;;16.98;57.70
19553;BME280;9420;50.876;7.012;2023-01-15T12:59:54;99786.81;;;18.30;52.64
19553;BME280;9420;50.876;7.012;2023-01-15T13:02:34;99768.91;;;19.76;47.21
19553;BME280;9420;50.876;7.012;2023-01-15T13:05:15;99770.56;;;18.79;47.95
19553;BME280;9420;50.876;7.012;2023-01-15T13:07:52;99808.84;;;16.10;55.44
19553;BME280;9420;50.876;7.012;2023-01-15T13:10:26;99812.59;;;16.33;57.61
19553;BME280;9420;50.876;7.012;2023-01-15T13:13:07;99796.22;;;15.46;56.58
19553;BME280;9420;50.876;7.012;2023-01-15T13:15:54;99807.03;;;15.57;57.93
19553;BME280;9420;50.876;7.012;2023-01-15T13:18:35;99830.88;;;14.59;60.91
19553;BME280;9420;50.876;7.012;2023-01-15T13:21:12;99811.44;;;14.44;64.32
19553;BME280;9420;50.876;7.012;2023-01-15T13:24:15;99824.06;;;14.55;63.84
19553;BME280;9420;50.876;7.012;2023-01-15T13:27:05;99819.84;;;15.08;64.14
19553;BME280;9420;50.876;7.012;2023-01-15T13:29:49;99814.38;;;14.40;64.43
19553;BME280;9420;50.876;7.012;2023-01-15T13:32:25;99807.22;;;15.54;62.01
19553;BME280;9420;50.876;7.012;2023-01-15T13:35:00;99798.88;;;15.46;60.26
19553;BME280;9420;50.876;7.012;2023-01-15T13:37:35;99843.13;;;15.32;59.68
19553;BME280;9420;50.876;7.012;2023-01-15T13:40:21;99826.34;;;15.31;59.03
19553;BME280;9420;50.876;7.012;2023-01-15T13:42:50;99792.84;;;17.74;51.89